Terminal Aerodrome Forecast
Issued by NWS

Home | Current Version | Previous Version | Text Only | Print | Product List | Glossary On
Versions: 1 2 3 4 5 6 7 8 9 10 11 12 13 14 15 16 17 18 19 20 21 22 23 24 25 26 27 28 29 30 31 32 33 34
295
FTUS46 KOTX 222331
TAFSFF
TAF
KSFF 222331Z 2300/2324 15007KT P6SM -RA SCT030 OVC040
     FM230300 VRB03KT 4SM -RASN BR OVC025
     FM230600 00000KT P6SM OVC008
     FM230900 23002KT 4SM BR OVC008
     FM231600 14002KT 6SM BR BKN008 OVC012
     FM231900 12006KT P6SM SCT015 BKN040=

USA.gov is the U.S. government's official web portal to all federal, state and local government web resources and services.